Last 7 Days

Pierce College

10 Minute Data | America/Los_Angeles
as of 2/7/23 8:04 PM PST
Date & Time Temp Max (°F) Temp Min (°F) RH (%) Dew Pt (°F) Latest Rain (In) Soil Temp (°F) Soil Moist (%) Pressure (mb) Wind Spd (mph) Wind Dir (°) Wind Gust (mph) Wind Gst Dir (°) Leaf Wet Raw (mV) Net Radiation (W/m²) Evap Pan Wind Spd (mph) Evap Pan WindRun (miles) Evap Pan H2O Temp (°F) Evap Pan Level (In) Season Precip (In)
2/7/23 - 2000 60.1 59.8 23 22.2 0.00 57.2 46.5 1,023.8 0.3 NW | 319 2.2 WNW | 303 264 -66 0.0 11.8 94.1 7.5 15.65
2/7/23 - 1950 60.6 59.8 24 22.8 0.00 57.1 46.5 1,023.8 0.6 N | 3 2.5 WNW | 286 264 -71 0.0 11.8 94.2 7.5 15.65
2/7/23 - 1940 61.4 60.5 22 22.2 0.00 57.1 46.5 1,023.8 0.4 N | 351 2.3 W | 260 264 -73 0.0 11.8 94.0 7.5 15.65
2/7/23 - 1930 61.5 61.1 22 21.9 0.00 57.0 46.5 1,023.7 0.9 NNW | 343 3.6 N | 0 264 -73 0.2 11.8 93.8 7.5 15.65
2/7/23 - 1920 61.8 61.3 22 21.9 0.00 57.0 46.5 1,023.7 0.7 NNW | 344 4.6 NW | 312 264 -72 0.5 11.8 93.4 7.5 15.65
2/7/23 - 1910 61.9 61.4 22 22.0 0.00 57.0 46.5 1,023.6 1.4 NNW | 348 4.7 NNW | 346 264 -71 0.2 11.7 93.5 7.5 15.65
2/7/23 - 1900 62.1 61.6 22 22.2 0.00 56.8 46.5 1,023.5 1.1 N | 350 3.7 N | 352 264 -74 0.2 11.6 93.6 7.5 15.65
2/7/23 - 1850 62.5 61.9 22 22.3 0.00 56.8 46.5 1,023.5 1.2 N | 0 5.0 NNW | 338 264 -76 0.2 11.6 93.5 7.5 15.65
2/7/23 - 1840 62.6 62.2 21 22.3 0.00 56.8 46.4 1,023.5 1.7 N | 350 5.4 N | 3 264 -77 0.2 11.6 93.6 7.5 15.65
2/7/23 - 1830 62.4 62.0 21 22.3 0.00 56.7 46.5 1,023.4 1.3 N | 353 3.6 NW | 316 264 -76 0.2 11.5 93.8 7.5 15.65
2/7/23 - 1820 62.7 62.0 21 22.2 0.00 56.6 46.5 1,023.4 0.6 NNW | 348 3.1 WNW | 300 264 -79 0.0 11.5 94.1 7.5 15.65
2/7/23 - 1810 63.0 62.4 21 21.7 0.00 56.6 46.5 1,023.3 0.8 NNW | 340 3.8 N | 5 264 -82 0.1 11.5 94.6 7.5 15.65
2/7/23 - 1800 63.4 62.8 20 21.5 0.00 56.5 46.5 1,023.4 0.5 NNW | 348 3.1 NW | 314 264 -85 0.0 11.5 94.9 7.5 15.65
2/7/23 - 1750 63.9 63.2 20 21.6 0.00 56.5 46.4 1,023.5 0.5 NNW | 348 3.0 WNW | 283 264 -86 0.2 11.5 95.2 7.5 15.65
2/7/23 - 1740 64.6 63.9 19 21.4 0.00 56.5 46.5 1,023.5 0.5 NNW | 341 2.4 NW | 325 264 -86 0.2 11.4 96.1 7.5 15.65
2/7/23 - 1730 65.3 64.5 19 21.2 0.00 56.4 46.4 1,023.4 0.8 NNW | 332 2.6 NE | 35 264 -85 0.2 11.4 97.0 7.5 15.65
2/7/23 - 1720 65.8 65.2 18 21.1 0.00 56.3 46.5 1,023.3 0.8 NNW | 332 3.0 NNE | 25 263 -82 0.5 11.4 98.1 7.5 15.65
2/7/23 - 1710 66.5 65.6 18 21.1 0.00 56.3 46.4 1,023.3 1.2 NNW | 342 7.2 NNW | 343 264 -80 0.7 11.3 99.4 7.5 15.65
2/7/23 - 1700 67.1 66.4 17 21.0 0.00 56.2 46.3 1,023.3 1.2 NNW | 336 3.6 WNW | 301 263 -70 0.6 11.2 103.2 7.5 15.65
2/7/23 - 1650 68.0 67.0 17 21.1 0.00 56.2 46.3 1,023.3 1.6 NNW | 344 5.8 NE | 44 263 -71 0.7 11.1 107.6 7.5 15.65
2/7/23 - 1640 68.6 68.0 17 21.2 0.00 56.1 46.3 1,023.2 1.4 N | 351 5.6 NNW | 347 263 -16 0.3 11.0 109.6 7.5 15.65
2/7/23 - 1630 69.0 68.2 16 21.0 0.00 56.0 46.3 1,023.2 2.3 N | 356 9.5 N | 354 263 9 0.6 10.9 110.5 7.5 15.65
2/7/23 - 1620 68.9 68.6 16 21.0 0.00 56.0 46.3 1,023.1 1.8 N | 1 5.7 ENE | 74 263 37 0.6 10.8 111.6 7.5 15.65
2/7/23 - 1610 69.2 68.6 16 20.4 0.00 55.9 46.2 1,023.1 3.2 N | 360 9.5 ENE | 57 263 61 0.7 10.7 112.5 7.5 15.65
2/7/23 - 1600 69.3 68.9 16 21.1 0.00 55.9 46.2 1,023.1 3.3 N | 357 10.0 NNE | 29 263 86 1.0 10.6 112.8 7.5 15.65
2/7/23 - 1550 70.0 69.1 16 21.3 0.00 55.8 46.2 1,023.2 2.5 N | 356 6.0 N | 0 263 112 0.5 10.4 112.7 7.5 15.65
2/7/23 - 1540 70.3 69.5 16 21.0 0.00 55.8 46.3 1,023.1 2.7 N | 359 7.2 WNW | 295 263 138 0.8 10.4 112.6 7.5 15.65
2/7/23 - 1530 70.1 69.8 16 21.1 0.00 55.7 46.2 1,023.2 2.0 NNW | 348 5.7 NNW | 334 263 162 1.0 10.2 111.7 7.5 15.65
2/7/23 - 1520 70.0 69.3 16 21.1 0.00 55.6 46.2 1,023.2 2.9 N | 1 9.7 NNW | 347 262 184 0.5 10.0 111.2 7.5 15.65
2/7/23 - 1510 70.4 69.9 16 21.2 0.00 55.6 46.2 1,023.2 2.4 N | 355 6.5 W | 264 262 205 1.3 10.0 110.8 7.5 15.65
2/7/23 - 1500 70.4 69.7 15 21.0 0.00 55.5 46.2 1,023.2 2.7 N | 349 7.3 NNW | 328 262 227 1.0 9.8 109.8 7.5 15.65
2/7/23 - 1450 70.3 69.5 16 21.0 0.00 55.5 46.2 1,023.1 3.1 N | 351 11.9 WNW | 287 262 248 1.3 9.6 109.1 7.5 15.65
2/7/23 - 1440 70.8 70.0 16 21.6 0.00 55.4 46.1 1,023.1 2.9 N | 356 8.7 NNE | 13 262 265 1.2 9.4 108.6 7.5 15.65
2/7/23 - 1430 70.6 69.8 16 21.5 0.00 55.4 46.2 1,023.1 2.7 N | 352 8.0 NE | 34 262 284 0.8 9.2 107.8 7.5 15.65
2/7/23 - 1420 70.2 69.8 16 21.1 0.00 55.3 46.2 1,023.2 2.9 N | 360 6.9 NNE | 22 262 302 1.1 9.0 105.8 7.5 15.65
2/7/23 - 1410 70.2 69.5 16 20.9 0.00 55.2 46.2 1,023.3 3.9 N | 4 11.3 NNE | 14 262 319 0.9 8.8 102.8 7.5 15.65
2/7/23 - 1400 70.4 69.5 15 20.9 0.00 55.2 46.2 1,023.4 4.2 N | 359 8.4 SSW | 194 262 334 1.0 8.7 101.8 7.6 15.65
2/7/23 - 1350 70.2 69.5 16 21.0 0.00 55.3 46.1 1,023.5 4.2 N | 6 12.7 NW | 326 262 347 1.3 8.5 101.0 7.6 15.65
2/7/23 - 1340 70.7 69.8 16 21.6 0.00 55.2 46.1 1,023.6 3.5 NNE | 14 11.0 N | 8 262 359 1.3 8.3 100.5 7.6 15.65
2/7/23 - 1330 70.6 69.4 16 21.6 0.00 55.2 46.1 1,023.8 3.5 N | 0 8.2 W | 276 262 372 1.2 8.1 99.9 7.6 15.65
2/7/23 - 1320 69.8 69.3 16 21.0 0.00 55.2 46.1 1,023.9 3.9 N | 7 15.2 NNE | 28 262 384 1.3 7.9 99.2 7.6 15.65
2/7/23 - 1310 69.8 69.3 16 20.7 0.00 55.2 46.1 1,024.1 3.5 N | 3 9.6 NE | 34 262 394 1.4 7.7 98.6 7.6 15.65
2/7/23 - 1300 70.0 69.2 16 21.0 0.00 55.4 46.1 1,024.2 3.7 N | 357 10.1 NNW | 341 262 402 1.4 7.5 98.9 7.6 15.65
2/7/23 - 1250 69.8 68.8 16 21.2 0.00 55.5 46.1 1,024.4 4.5 N | 0 15.2 NNW | 343 262 410 1.4 7.2 99.0 7.6 15.65
2/7/23 - 1240 69.6 68.8 16 21.1 0.00 55.5 46.1 1,024.5 4.6 N | 11 11.6 NNE | 13 263 416 1.1 7.0 98.4 7.6 15.65
2/7/23 - 1230 69.4 68.6 17 22.0 0.00 55.5 46.1 1,024.7 3.7 N | 349 8.9 W | 273 263 422 1.4 6.8 97.1 7.6 15.65
2/7/23 - 1220 70.1 69.2 17 22.8 0.00 55.4 46.1 1,024.8 3.1 N | 6 8.6 NNE | 20 263 422 1.4 6.6 96.4 7.6 15.65
2/7/23 - 1210 69.4 68.7 17 22.5 0.00 55.4 46.1 1,025.0 3.7 N | 1 10.7 NNW | 339 263 423 1.0 6.4 94.6 7.6 15.65
2/7/23 - 1200 69.4 68.1 18 22.8 0.00 55.4 46.1 1,025.2 3.2 N | 4 12.2 N | 9 263 423 1.2 6.2 91.0 7.6 15.65
2/7/23 - 1150 68.6 67.8 17 22.2 0.00 55.4 46.1 1,025.4 4.2 N | 7 10.8 NE | 45 263 422 1.0 6.0 87.6 7.6 15.65
2/7/23 - 1140 68.2 67.3 18 22.1 0.00 55.4 46.1 1,025.5 5.1 N | 4 11.1 NNE | 32 263 419 1.1 5.8 82.9 7.6 15.65
2/7/23 - 1130 68.1 67.4 18 22.0 0.00 55.4 46.1 1,025.6 4.8 NNE | 14 13.3 NNE | 20 263 413 1.3 5.7 80.2 7.6 15.65
2/7/23 - 1120 68.1 67.3 17 22.0 0.00 55.4 46.2 1,025.7 3.7 N | 3 11.0 N | 352 263 406 1.1 5.4 78.4 7.6 15.65
2/7/23 - 1110 67.8 67.2 17 21.7 0.00 55.4 46.1 1,025.8 4.3 N | 5 11.6 NNW | 339 263 399 1.3 5.3 76.9 7.6 15.65
2/7/23 - 1100 67.5 66.9 17 21.6 0.00 55.4 46.2 1,025.8 4.2 N | 358 10.5 N | 354 263 390 1.3 5.0 75.0 7.6 15.65
2/7/23 - 1050 67.6 67.2 17 21.7 0.00 55.4 46.2 1,025.8 3.1 N | 357 9.1 NNW | 345 263 380 1.4 4.8 72.9 7.6 15.65
2/7/23 - 1040 67.5 66.8 18 21.8 0.00 55.5 46.2 1,025.9 3.5 N | 1 9.9 NNW | 338 263 368 1.4 4.6 70.6 7.6 15.65
2/7/23 - 1030 67.4 66.6 18 21.5 0.00 55.4 46.2 1,025.9 3.0 N | 3 7.5 NNE | 13 263 355 0.9 4.4 68.2 7.6 15.65
2/7/23 - 1020 66.7 65.8 18 21.4 0.00 55.5 46.2 1,025.9 3.5 N | 10 8.5 NW | 315 263 343 0.9 4.2 66.3 7.6 15.65
2/7/23 - 1010 66.0 65.1 19 21.6 0.00 55.5 46.2 1,025.9 3.6 N | 1 10.4 N | 8 263 329 1.2 4.1 64.5 7.6 15.65
2/7/23 - 1000 65.3 65.0 19 21.5 0.00 55.5 46.3 1,025.9 4.0 N | 4 10.1 NNW | 340 263 313 1.3 3.9 63.2 7.6 15.65
2/7/23 - 0950 65.3 64.5 19 22.0 0.00 55.5 46.3 1,025.9 2.8 N | 2 6.7 NW | 313 263 295 1.0 3.6 62.1 7.6 15.65
2/7/23 - 0940 64.8 64.4 20 22.1 0.00 55.5 46.3 1,025.9 3.0 N | 2 8.9 N | 355 263 277 1.0 3.5 61.0 7.6 15.65
2/7/23 - 0930 64.6 63.3 20 22.7 0.00 55.5 46.3 1,025.9 2.1 NNE | 14 5.7 NW | 321 263 258 0.3 3.3 60.2 7.6 15.65
2/7/23 - 0920 63.4 62.6 21 22.1 0.00 55.5 46.4 1,025.9 2.3 N | 350 8.8 WNW | 288 263 240 1.1 3.3 59.6 7.6 15.65
2/7/23 - 0910 62.9 61.9 21 22.2 0.00 55.6 46.4 1,025.7 1.9 N | 356 6.4 W | 276 263 220 0.9 3.1 59.2 7.6 15.65
2/7/23 - 0900 62.1 61.2 21 21.5 0.00 55.6 46.4 1,025.7 2.1 N | 350 6.4 NNW | 332 264 200 0.6 2.9 58.6 7.6 15.65
2/7/23 - 0850 61.3 60.4 22 21.5 0.00 55.6 46.4 1,025.6 2.6 N | 358 7.8 NE | 43 264 180 0.7 2.8 58.0 7.6 15.65
2/7/23 - 0840 60.7 60.1 22 21.6 0.00 55.5 46.5 1,025.5 2.5 NNE | 13 7.9 NNE | 21 264 159 0.7 2.7 57.5 7.6 15.65
2/7/23 - 0830 60.3 59.8 22 21.3 0.00 55.6 46.5 1,025.5 2.2 NNE | 12 6.3 WSW | 251 264 140 0.5 2.6 57.2 7.6 15.65
2/7/23 - 0820 60.4 59.4 23 22.4 0.00 55.6 46.5 1,025.5 1.6 N | 354 5.1 NE | 55 264 101 0.5 2.5 56.9 7.6 15.65
2/7/23 - 0810 60.4 57.9 25 23.0 0.00 55.6 46.5 1,025.4 0.5 WSW | 237 2.0 W | 266 266 19 0.0 2.5 56.7 7.6 15.65
2/7/23 - 0800 57.8 55.6 27 23.0 0.00 55.7 46.5 1,025.4 2.6 SW | 221 4.9 SW | 218 266 22 0.8 2.4 56.6 7.6 15.65
2/7/23 - 0750 55.5 52.7 30 23.2 0.00 55.7 46.5 1,025.3 1.9 SSW | 192 4.3 SSW | 208 266 9 0.3 2.3 56.2 7.6 15.65
2/7/23 - 0740 53.0 52.1 32 23.4 0.00 55.9 46.5 1,025.4 1.4 S | 171 2.7 SSW | 194 266 -49 0.0 2.3 56.2 7.6 15.65
2/7/23 - 0730 52.5 50.1 32 22.1 0.00 55.8 46.5 1,025.3 1.6 S | 189 3.4 S | 181 266 -47 0.2 2.3 55.8 7.6 15.65
2/7/23 - 0720 50.4 47.4 35 22.7 0.00 55.8 46.5 1,025.4 0.9 S | 184 3.3 S | 175 266 -51 0.0 2.2 55.8 7.6 15.65
2/7/23 - 0710 48.8 47.2 38 23.4 0.00 55.8 46.5 1,025.4 1.4 SSE | 165 3.4 SSE | 155 266 -54 0.3 2.2 55.9 7.6 15.65
2/7/23 - 0700 49.3 47.2 35 22.3 0.00 55.8 46.5 1,025.3 2.8 SSW | 200 4.3 SSW | 209 266 -58 0.2 2.2 56.0 7.6 15.65
2/7/23 - 0650 48.0 45.7 41 24.3 0.00 55.9 46.5 1,025.2 2.4 S | 180 5.1 SSW | 200 267 -61 0.2 2.2 56.2 7.6 15.65
2/7/23 - 0640 49.1 48.0 35 22.1 0.00 55.8 46.5 1,024.9 1.2 SSW | 207 2.6 SSE | 163 266 -64 0.1 2.1 56.3 7.6 15.65
2/7/23 - 0630 48.2 46.5 37 22.4 0.00 55.9 46.5 1,024.8 1.2 S | 182 2.3 SE | 131 266 -64 0.3 2.1 56.5 7.6 15.65
2/7/23 - 0620 47.4 46.9 39 23.2 0.00 55.9 46.5 1,024.8 1.0 S | 170 2.8 SSE | 153 266 -65 0.0 2.1 56.7 7.6 15.65
2/7/23 - 0610 48.3 47.3 37 23.0 0.00 55.9 46.5 1,024.7 1.1 S | 187 3.2 SW | 229 266 -66 0.0 2.1 56.9 7.6 15.65
2/7/23 - 0600 50.8 48.3 34 22.8 0.00 55.9 46.6 1,024.7 0.9 SSE | 164 3.1 S | 173 266 -67 0.0 2.1 57.0 7.6 15.65
2/7/23 - 0550 51.3 49.8 32 21.6 0.00 56.0 46.5 1,024.5 1.6 WSW | 241 3.5 NW | 304 266 -67 0.2 2.1 57.1 7.6 15.65
2/7/23 - 0540 50.6 49.4 33 21.9 0.00 55.9 46.5 1,024.4 2.8 SW | 232 4.6 W | 269 266 -66 0.5 2.0 57.2 7.6 15.65
2/7/23 - 0530 49.5 48.2 35 22.6 0.00 55.9 46.5 1,024.3 3.3 SSW | 196 4.8 SSW | 198 266 -66 0.8 1.9 57.2 7.6 15.65
2/7/23 - 0520 51.8 49.0 32 22.1 0.00 55.9 46.6 1,024.2 1.7 SSW | 205 5.0 SSW | 205 266 -67 0.4 1.8 57.4 7.6 15.65
2/7/23 - 0510 53.7 51.5 30 21.7 0.00 55.9 46.6 1,024.2 3.3 SW | 215 4.9 SSW | 203 266 -69 0.1 1.8 57.7 7.6 15.65
2/7/23 - 0500 54.1 52.8 27 21.0 0.00 55.8 46.6 1,024.1 2.5 W | 272 5.2 SW | 232 266 -71 0.7 1.7 57.7 7.6 15.65
2/7/23 - 0450 53.7 46.6 32 21.4 0.00 55.8 46.6 1,024.1 3.3 SSE | 165 9.2 ESE | 115 266 -69 1.0 1.6 57.5 7.6 15.65
2/7/23 - 0440 48.8 46.9 38 23.3 0.00 55.8 46.6 1,024.1 2.1 SSW | 194 3.9 S | 191 266 -67 0.4 1.5 57.8 7.6 15.65
2/7/23 - 0430 52.4 48.9 34 22.8 0.00 55.8 46.6 1,023.9 1.8 S | 191 2.8 SW | 228 266 -70 0.2 1.4 58.1 7.6 15.65
2/7/23 - 0420 54.0 52.4 28 21.2 0.00 55.8 46.6 1,023.6 1.1 SSE | 166 2.6 SSW | 199 266 -72 0.0 1.4 58.3 7.6 15.65
2/7/23 - 0410 54.0 53.1 28 21.3 0.00 55.8 46.6 1,023.6 1.6 NNE | 25 4.3 NNW | 343 266 -73 0.2 1.4 58.4 7.6 15.65
2/7/23 - 0400 53.2 52.1 30 21.7 0.00 55.8 46.6 1,023.6 1.7 N | 5 5.0 N | 350 266 -71 0.1 1.3 58.4 7.6 15.65
2/7/23 - 0350 53.2 52.1 30 22.3 0.00 55.8 46.7 1,023.7 0.4 NNW | 347 1.7 N | 351 266 -71 0.0 1.3 58.6 7.6 15.65
2/7/23 - 0340 53.3 52.9 29 21.4 0.00 55.8 46.6 1,023.8 0.4 NW | 317 2.2 NNE | 24 266 -73 0.0 1.3 58.9 7.6 15.65
2/7/23 - 0330 53.5 53.0 29 21.6 0.00 55.8 46.6 1,023.7 0.7 NNW | 329 3.7 NNE | 32 266 -73 0.1 1.3 59.2 7.6 15.65
2/7/23 - 0320 53.3 53.1 29 22.0 0.00 56.0 46.7 1,023.6 1.7 N | 7 4.5 NNE | 28 266 -74 0.1 1.3 59.4 7.6 15.65
2/7/23 - 0310 53.8 53.2 29 22.1 0.00 56.0 46.6 1,023.9 1.0 N | 360 4.4 NE | 44 266 -75 0.2 1.3 59.6 7.6 15.65
2/7/23 - 0300 54.4 53.8 28 21.8 0.00 56.1 46.6 1,023.9 1.4 N | 359 4.2 NNE | 31 266 -76 0.2 1.3 59.9 7.6 15.65
2/7/23 - 0250 54.7 54.0 28 21.7 0.00 56.3 46.7 1,023.9 1.6 N | 355 5.6 NNE | 22 266 -75 0.2 1.2 60.2 7.6 15.65
2/7/23 - 0240 55.3 54.5 27 21.6 0.00 56.4 46.7 1,024.0 1.6 N | 356 7.5 NW | 324 266 -75 0.2 1.2 60.5 7.6 15.65
2/7/23 - 0230 55.9 55.1 26 21.3 0.00 56.4 46.7 1,024.1 1.7 N | 3 6.1 N | 4 266 -75 0.1 1.1 60.7 7.6 15.65
2/7/23 - 0220 56.7 55.9 25 20.8 0.00 56.5 46.7 1,024.2 1.9 N | 11 7.5 NNE | 18 266 -75 0.4 1.1 60.7 7.6 15.65
2/7/23 - 0210 56.3 52.1 27 20.7 0.00 56.7 46.7 1,024.3 1.7 N | 358 7.6 NW | 323 266 -74 0.8 1.1 60.5 7.6 15.65
2/7/23 - 0200 52.3 50.2 32 22.5 0.00 56.7 46.7 1,024.3 1.6 WNW | 299 5.3 WSW | 256 266 -69 0.6 0.9 60.6 7.6 15.65
2/7/23 - 0150 51.7 50.6 32 22.2 0.00 56.8 46.7 1,024.3 3.4 WSW | 240 5.0 WSW | 242 266 -69 1.3 0.8 61.2 7.6 15.65
2/7/23 - 0140 53.1 51.6 30 22.1 0.00 56.9 46.7 1,024.3 2.9 SSW | 196 4.4 SSW | 193 266 -72 1.2 0.6 61.7 7.6 15.65
2/7/23 - 0130 54.5 52.7 29 22.0 0.00 56.6 46.7 1,024.1 2.4 SSE | 151 4.7 SSE | 159 266 -75 0.4 0.4 61.5 7.6 15.65
2/7/23 - 0120 55.3 54.3 27 21.5 0.00 56.3 46.7 1,023.9 1.0 ENE | 78 3.7 W | 271 266 -77 0.1 0.3 61.4 7.6 15.65
2/7/23 - 0110 55.7 55.0 27 21.5 0.00 56.4 46.7 1,023.7 1.6 N | 360 5.9 N | 0 266 -78 0.4 0.3 61.8 7.6 15.65
2/7/23 - 0100 55.9 55.2 26 21.5 0.00 56.7 46.7 1,023.5 2.1 N | 6 7.0 NNW | 347 266 -78 0.2 0.3 62.5 7.6 15.65
2/7/23 - 0050 55.9 55.4 26 21.2 0.00 56.7 46.7 1,023.4 3.3 N | 2 6.7 N | 0 266 -78 0.6 0.2 62.6 7.6 15.65
2/7/23 - 0040 55.5 55.2 27 21.5 0.00 56.7 46.7 1,023.5 3.5 N | 10 7.3 NNE | 26 266 -77 0.3 0.1 62.6 7.6 15.65
2/7/23 - 0030 55.4 55.0 27 21.7 0.00 56.8 46.7 1,023.6 3.3 NNE | 15 6.6 NNE | 26 266 -77 0.2 0.1 63.0 7.6 15.65
2/7/23 - 0020 55.2 54.8 27 21.7 0.00 56.8 46.7 1,023.6 2.8 N | 6 4.9 NNE | 19 266 -76 0.1 0.0 63.2 7.6 15.65
2/7/23 - 0010 55.3 54.8 27 21.6 0.00 56.6 46.7 1,023.7 2.0 N | 1 4.4 N | 10 266 -76 0.0 0.0 63.5 7.6 15.65
2/7/23 - 0000 55.3 55.0 27 21.5 0.00 56.7 46.7 1,023.8 1.7 N | 10 4.8 N | 9 266 -75 0.1 18.0 64.0 7.6 15.65
2/6/23 - 2350 55.7 55.0 27 21.9 0.00 56.8 46.7 1,023.7 1.1 N | 349 4.1 NNE | 31 266 -76 0.1 18.0 64.6 7.6 15.65
2/6/23 - 2340 56.6 55.6 26 21.6 0.00 56.8 46.7 1,023.7 1.3 N | 358 4.7 NNW | 335 266 -77 0.0 18.0 65.3 7.6 15.65
2/6/23 - 2330 57.3 56.4 25 21.0 0.00 56.8 46.7 1,023.6 2.0 N | 355 5.6 NNW | 340 265 -77 0.4 18.0 65.8 7.6 15.65
2/6/23 - 2320 56.9 55.9 24 20.6 0.00 56.8 46.7 1,023.5 2.7 N | 5 6.1 NNE | 33 266 -76 0.2 17.9 66.1 7.6 15.65
2/6/23 - 2310 56.1 55.4 26 21.3 0.00 56.8 46.8 1,023.5 2.2 N | 10 6.6 N | 4 266 -76 0.1 17.9 66.5 7.6 15.65
2/6/23 - 2300 56.1 55.3 27 22.0 0.00 56.7 46.7 1,023.5 1.2 N | 3 4.0 N | 10 266 -77 0.1 17.8 66.9 7.6 15.65
2/6/23 - 2250 56.7 55.9 26 21.5 0.00 56.7 46.7 1,023.5 1.6 NNW | 344 6.5 NW | 304 266 -78 0.3 17.8 67.4 7.6 15.65
2/6/23 - 2240 56.2 55.6 26 21.4 0.00 56.9 46.7 1,023.4 1.4 N | 5 5.6 NE | 35 266 -78 0.2 17.8 68.2 7.6 15.65
2/6/23 - 2230 56.9 56.1 25 21.4 0.00 57.0 46.7 1,023.4 1.1 ENE | 68 2.9 NE | 52 266 -79 0.3 17.7 68.8 7.6 15.65
2/6/23 - 2220 57.2 56.7 25 21.4 0.00 57.0 46.8 1,023.3 2.3 NNE | 32 6.7 N | 7 266 -80 0.5 17.7 69.3 7.6 15.65
2/6/23 - 2210 56.9 55.0 26 21.3 0.00 57.0 46.8 1,023.1 2.7 N | 354 10.0 NNE | 16 266 -79 0.6 17.6 69.6 7.6 15.65
2/6/23 - 2200 55.2 54.4 29 23.1 0.00 56.9 46.7 1,023.2 1.0 N | 1 4.6 N | 5 266 -77 0.2 17.5 70.2 7.6 15.65
2/6/23 - 2150 55.3 54.9 29 23.3 0.00 56.9 46.8 1,023.3 0.8 NNW | 343 2.5 NW | 319 266 -79 0.2 17.5 71.1 7.6 15.65
2/6/23 - 2140 55.3 54.8 29 23.1 0.00 56.9 46.8 1,023.3 1.2 NNW | 332 4.6 N | 352 266 -80 0.6 17.5 71.6 7.6 15.65
2/6/23 - 2130 54.7 54.2 30 23.7 0.00 56.9 46.8 1,023.2 0.9 NNW | 332 4.2 WSW | 249 266 -78 0.5 17.4 72.1 7.6 15.65
2/6/23 - 2120 55.2 54.6 29 23.3 0.00 56.9 46.7 1,023.3 2.7 WNW | 286 7.3 WSW | 251 266 -76 1.5 17.3 72.6 7.6 15.65
2/6/23 - 2110 55.0 51.8 31 23.2 0.00 56.9 46.8 1,023.2 4.1 SW | 220 6.4 W | 260 266 -75 1.6 17.0 73.2 7.6 15.65
2/6/23 - 2100 52.4 51.2 33 24.0 0.00 56.9 46.7 1,023.1 2.7 S | 182 4.5 SSW | 196 266 -75 0.3 16.8 74.1 7.6 15.65
2/6/23 - 2050 54.0 51.1 33 24.2 0.00 56.9 46.8 1,023.1 1.1 S | 184 3.6 SSW | 192 266 -76 0.2 16.7 75.2 7.6 15.65
2/6/23 - 2040 54.2 53.5 30 23.4 0.00 56.9 46.8 1,023.0 0.7 WSW | 258 2.6 NNW | 343 266 -77 0.0 16.7 76.4 7.6 15.65
2/6/23 - 2030 53.7 52.1 32 23.7 0.00 56.8 46.8 1,022.9 1.1 WNW | 293 3.2 SSW | 192 266 -76 0.3 16.7 77.2 7.6 15.65
2/6/23 - 2020 52.4 51.4 34 24.0 0.00 56.8 46.8 1,022.8 1.7 SW | 220 5.0 W | 278 266 -74 0.7 16.6 78.0 7.6 15.65
2/6/23 - 2010 52.6 51.5 33 23.9 0.00 56.8 46.8 1,022.9 1.7 SSW | 194 3.4 SW | 227 266 -73 0.0 16.5 79.1 7.6 15.65
2/6/23 - 2000 52.6 50.7 33 23.6 0.00 56.8 46.8 1,022.9 1.8 SW | 221 3.7 WSW | 239 266 -73 0.5 16.5 80.8 7.6 15.65
2/6/23 - 1950 52.4 50.6 34 23.8 0.00 56.7 46.8 1,022.9 1.7 SW | 224 3.4 SSW | 208 266 -73 0.2 16.4 84.7 7.6 15.65
2/6/23 - 1940 53.6 52.2 32 23.8 0.00 56.6 46.8 1,022.9 0.5 SSE | 147 3.1 SSW | 198 266 -77 0.0 16.4 86.5 7.6 15.65
2/6/23 - 1930 55.4 53.5 30 24.2 0.00 56.6 46.8 1,022.8 1.0 NNE | 26 3.3 WSW | 238 266 -80 0.0 16.4 87.6 7.6 15.65
2/6/23 - 1920 55.2 54.9 29 23.1 0.00 56.5 46.8 1,022.7 2.0 SW | 222 6.1 SW | 233 266 -81 0.4 16.4 88.4 7.6 15.65
2/6/23 - 1910 55.1 54.6 29 23.2 0.00 56.5 46.8 1,022.7 3.4 SSW | 210 5.3 SW | 214 266 -80 1.0 16.3 89.1 7.6 15.65
2/6/23 - 1900 55.7 54.7 29 23.3 0.00 56.4 46.8 1,022.5 2.8 SW | 216 5.7 SW | 229 266 -79 1.1 16.2 89.8 7.6 15.65
2/6/23 - 1850 56.4 55.0 28 23.4 0.00 56.3 46.8 1,022.4 2.0 WSW | 237 4.4 W | 267 266 -80 0.6 16.0 90.6 7.6 15.65
2/6/23 - 1840 57.6 56.5 27 23.5 0.00 56.3 46.8 1,022.2 1.9 WSW | 258 4.3 SW | 231 265 -83 0.7 15.9 91.4 7.6 15.65
2/6/23 - 1830 58.1 57.5 26 23.3 0.00 56.5 46.8 1,022.2 2.4 W | 269 6.0 WSW | 254 265 -84 0.8 15.7 92.3 7.6 15.65
2/6/23 - 1820 58.6 57.8 26 23.8 0.00 56.9 46.8 1,022.3 1.2 WNW | 298 4.4 W | 280 266 -86 1.1 15.6 93.4 7.6 15.65
2/6/23 - 1810 58.7 58.4 26 23.8 0.00 56.8 46.8 1,022.2 1.2 NW | 315 4.4 WNW | 287 265 -88 1.0 15.4 93.5 7.6 15.65
2/6/23 - 1800 59.4 58.7 26 24.3 0.00 56.7 46.8 1,022.0 1.4 NW | 318 4.4 NNE | 29 265 -88 0.9 15.2 93.4 7.6 15.65
2/6/23 - 1750 59.8 59.3 26 24.8 0.00 56.6 46.8 1,021.9 0.9 NW | 321 3.9 S | 175 265 -90 0.5 15.1 93.6 7.6 15.65
2/6/23 - 1740 60.4 59.8 26 25.2 0.00 56.6 46.7 1,021.9 1.6 N | 357 5.5 N | 0 265 -89 0.5 15.0 93.6 7.7 15.65
2/6/23 - 1730 61.0 60.3 26 25.8 0.00 56.4 46.8 1,021.8 1.3 N | 354 4.5 N | 0 265 -87 0.8 15.0 93.8 7.7 15.65
2/6/23 - 1720 61.6 60.8 26 25.9 0.00 56.4 46.7 1,021.8 1.6 NNW | 341 5.2 ENE | 62 265 -84 0.9 14.8 94.0 7.7 15.65
2/6/23 - 1710 62.5 61.5 24 25.1 0.00 56.0 46.7 1,021.8 1.6 NNW | 342 5.2 WSW | 237 264 -80 0.7 14.7 94.1 7.7 15.65
2/6/23 - 1700 63.4 62.4 22 24.0 0.00 56.3 46.7 1,021.9 1.6 NNW | 347 5.4 NW | 324 264 -71 0.4 14.5 95.3 7.7 15.65
2/6/23 - 1650 64.3 63.3 21 22.6 0.00 56.4 46.7 1,021.8 2.2 N | 349 5.5 WSW | 250 264 -73 0.6 14.5 96.7 7.7 15.65
2/6/23 - 1640 64.7 64.2 19 20.9 0.00 56.3 46.7 1,021.7 3.0 N | 3 7.2 W | 273 264 -23 0.5 14.4 97.9 7.7 15.65
2/6/23 - 1630 65.0 64.5 18 20.8 0.00 55.8 46.7 1,021.7 3.5 NNE | 16 9.3 NNE | 27 264 7 0.4 14.3 97.9 7.7 15.65
2/6/23 - 1620 65.4 64.8 18 20.2 0.00 55.7 46.7 1,021.7 3.6 N | 9 9.6 NNW | 341 264 33 0.4 14.2 98.5 7.7 15.65
2/6/23 - 1610 65.5 65.2 18 20.6 0.00 55.6 46.7 1,021.6 2.2 N | 356 6.4 NNE | 13 264 58 0.6 14.1 99.1 7.7 15.65
2/6/23 - 1600 65.4 65.2 17 20.0 0.00 55.6 46.7 1,021.6 4.0 N | 3 11.0 NNE | 20 264 84 0.9 14.0 99.7 7.7 15.65
2/6/23 - 1550 66.1 65.3 18 21.2 0.00 55.6 46.7 1,021.7 5.1 NNE | 17 12.0 NNW | 332 264 109 0.9 13.9 99.9 7.7 15.65
2/6/23 - 1540 66.6 65.9 19 22.2 0.00 55.6 46.7 1,021.8 2.6 N | 6 8.3 N | 354 263 135 0.7 13.7 100.0 7.7 15.65
2/6/23 - 1530 66.4 65.8 20 24.0 0.00 55.6 46.7 1,021.9 2.0 N | 2 6.2 NW | 324 264 160 0.8 13.6 99.8 7.7 15.65
2/6/23 - 1520 66.7 65.9 21 24.8 0.00 55.6 46.7 1,021.9 2.6 NNW | 348 9.4 NNE | 19 264 183 0.7 13.5 99.8 7.7 15.65
2/6/23 - 1510 66.5 65.7 22 26.3 0.00 55.6 46.7 1,021.9 1.7 NNW | 345 5.5 NNW | 345 264 204 0.8 13.4 99.6 7.7 15.65
2/6/23 - 1500 66.4 65.8 23 26.8 0.00 55.6 46.6 1,021.9 2.2 N | 354 5.8 N | 351 263 227 0.9 13.2 99.6 7.7 15.65
2/6/23 - 1450 66.2 65.7 23 26.6 0.00 55.5 46.6 1,021.8 3.4 N | 359 8.4 NNE | 29 263 247 0.7 13.1 99.3 7.7 15.65
2/6/23 - 1440 66.4 65.4 22 26.2 0.00 55.5 46.6 1,021.9 4.5 N | 5 9.5 NNE | 24 264 266 0.9 13.0 98.9 7.7 15.65
2/6/23 - 1430 66.3 65.4 22 26.1 0.00 55.5 46.6 1,021.9 2.3 N | 355 6.4 NE | 34 263 286 1.3 12.8 98.7 7.7 15.65
2/6/23 - 1420 66.4 65.6 20 23.8 0.00 55.5 46.6 1,021.9 4.4 NNE | 15 11.6 NE | 34 263 302 1.3 12.6 98.6 7.7 15.65
2/6/23 - 1410 66.2 65.5 19 22.2 0.00 55.5 46.6 1,021.8 5.8 N | 10 10.7 N | 354 263 322 1.5 12.4 98.2 7.7 15.65
2/6/23 - 1400 66.6 65.9 19 22.2 0.00 55.5 46.6 1,022.0 4.5 N | 6 8.5 NNW | 331 263 336 0.9 12.1 97.7 7.7 15.65
2/6/23 - 1350 67.3 66.4 18 21.5 0.00 55.5 46.7 1,022.2 3.2 N | 356 8.5 NE | 36 263 351 1.0 12.0 97.7 7.7 15.65
2/6/23 - 1340 67.4 66.2 18 21.6 0.00 55.5 46.6 1,022.5 3.0 N | 5 10.1 NNE | 15 263 362 0.9 11.8 97.5 7.7 15.65
2/6/23 - 1330 67.4 66.4 18 21.9 0.00 55.4 46.6 1,022.6 2.6 N | 354 6.8 N | 4 263 374 0.8 11.6 97.2 7.7 15.65
2/6/23 - 1320 67.3 66.4 19 23.5 0.00 55.4 46.6 1,022.7 2.6 N | 2 8.1 N | 7 263 384 0.8 11.5 96.9 7.7 15.65
2/6/23 - 1310 66.8 65.9 20 24.7 0.00 55.4 46.6 1,022.8 2.9 N | 6 7.3 NNW | 341 264 392 0.6 11.4 96.3 7.7 15.65
2/6/23 - 1300 66.4 65.2 21 24.9 0.00 55.5 46.6 1,023.0 3.4 N | 9 9.9 NNW | 341 264 403 0.8 11.3 95.8 7.7 15.65
2/6/23 - 1250 65.8 64.9 21 24.2 0.00 55.4 46.6 1,023.2 4.5 NNE | 17 11.4 NNW | 328 264 411 1.0 11.1 95.2 7.7 15.65
2/6/23 - 1240 65.9 64.7 20 23.6 0.00 55.4 46.6 1,023.4 4.6 NNE | 15 11.5 NNE | 13 264 419 1.4 11.0 93.3 7.7 15.65
2/6/23 - 1230 65.7 64.7 20 23.6 0.00 55.5 46.6 1,023.6 4.7 N | 10 9.8 N | 9 264 422 1.4 10.7 90.1 7.7 15.65
2/6/23 - 1220 65.4 63.8 21 24.0 0.00 55.5 46.6 1,023.8 4.0 NNE | 20 8.7 NE | 43 264 425 1.0 10.5 86.4 7.7 15.65
2/6/23 - 1210 65.1 63.8 21 24.3 0.00 55.5 46.6 1,024.0 3.7 N | 8 12.1 NNE | 25 264 427 1.4 10.3 82.2 7.7 15.65
2/6/23 - 1200 65.7 64.8 22 25.5 0.00 55.5 46.6 1,024.3 3.0 N | 11 9.3 NNE | 23 264 423 1.1 10.1 80.4 7.7 15.65
2/6/23 - 1150 65.2 63.8 23 25.6 0.00 55.6 46.6 1,024.4 2.3 N | 8 8.9 N | 350 264 422 0.6 9.9 78.9 7.7 15.65
2/6/23 - 1140 64.4 63.2 22 24.6 0.00 55.6 46.6 1,024.6 3.2 N | 2 8.1 NE | 42 265 422 1.2 9.8 77.5 7.7 15.65
2/6/23 - 1130 64.4 63.1 22 24.5 0.00 55.5 46.6 1,024.7 2.7 N | 353 7.3 WNW | 294 264 416 1.0 9.6 75.6 7.7 15.65
2/6/23 - 1120 65.0 63.4 23 25.6 0.00 55.6 46.6 1,024.8 3.5 NNE | 15 12.1 NNW | 347 264 410 1.6 9.4 73.3 7.7 15.65
2/6/23 - 1110 64.8 64.0 25 28.2 0.00 55.6 46.7 1,024.8 1.9 NW | 321 6.6 N | 0 265 399 1.3 9.2 70.9 7.7 15.65
2/6/23 - 1100 64.2 63.2 26 28.3 0.00 55.6 46.6 1,025.0 1.3 NW | 307 5.3 WSW | 249 265 390 1.2 8.9 68.8 7.7 15.65
2/6/23 - 1050 63.9 62.5 27 28.5 0.00 55.6 46.7 1,025.2 0.8 NNW | 336 3.4 NNE | 31 265 380 0.4 8.7 66.7 7.7 15.65
2/6/23 - 1040 62.5 61.9 27 28.1 0.00 55.7 46.7 1,025.2 1.6 NW | 311 5.3 NW | 306 265 370 1.7 8.7 64.7 7.7 15.65
2/6/23 - 1030 62.4 60.3 28 28.4 0.00 55.7 46.7 1,025.3 1.1 NW | 320 4.9 WNW | 290 265 357 1.1 8.4 63.0 7.7 15.65
2/6/23 - 1020 60.4 58.8 30 28.4 0.00 55.7 46.7 1,025.3 1.5 N | 349 7.1 NNE | 13 266 344 0.9 8.2 61.8 7.7 15.65
2/6/23 - 1010 59.8 58.9 32 29.7 0.00 55.7 46.7 1,025.3 2.7 W | 268 8.3 WSW | 254 266 329 2.2 8.0 60.8 7.7 15.65
2/6/23 - 1000 59.5 57.3 33 29.4 0.00 55.7 46.7 1,025.4 1.2 WSW | 255 4.7 WNW | 288 266 313 0.8 7.7 60.0 7.7 15.65
2/6/23 - 0950 58.8 57.5 33 29.2 0.00 55.7 46.7 1,025.4 1.8 W | 277 5.3 WSW | 239 266 295 1.2 7.5 59.1 7.7 15.65
2/6/23 - 0940 57.6 57.0 34 29.2 0.00 55.8 46.7 1,025.4 1.3 NNE | 25 3.5 NE | 37 266 278 0.3 7.4 58.4 7.7 15.65
2/6/23 - 0930 57.4 57.0 34 29.4 0.00 55.7 46.7 1,025.2 1.1 NNE | 25 2.8 NNE | 22 266 258 0.2 7.3 57.6 7.7 15.65
2/6/23 - 0920 57.3 56.0 36 30.2 0.00 55.8 46.7 1,025.2 1.6 W | 280 4.4 WNW | 285 266 239 0.9 7.3 57.1 7.7 15.65
2/6/23 - 0910 57.6 56.5 35 29.9 0.00 55.9 46.7 1,025.2 1.6 W | 274 4.8 WSW | 252 266 219 1.0 7.1 56.7 7.7 15.65
2/6/23 - 0900 56.6 55.2 37 29.8 0.00 55.5 46.8 1,025.2 1.2 NNE | 17 5.9 NNE | 32 266 198 0.2 7.0 55.8 7.7 15.65
2/6/23 - 0850 55.3 54.7 38 29.9 0.00 55.7 46.8 1,025.2 1.5 NNE | 26 3.6 NNW | 348 266 178 0.2 6.9 55.7 7.7 15.65
2/6/23 - 0840 55.3 54.8 38 29.7 0.00 55.7 46.8 1,025.1 1.2 NNE | 13 4.3 NNW | 340 266 157 0.2 6.9 55.2 7.7 15.65
2/6/23 - 0830 55.1 54.2 39 30.6 0.00 55.7 46.8 1,025.0 0.6 NNE | 13 4.4 NNW | 340 266 137 0.2 6.9 55.0 7.7 15.65
2/6/23 - 0820 54.3 52.5 41 30.2 0.00 55.8 46.8 1,024.9 0.4 NNW | 336 2.1 NNW | 327 267 117 0.0 6.8 54.9 7.7 15.65
2/6/23 - 0810 52.6 50.9 43 30.2 0.00 55.8 46.8 1,024.9 1.0 NW | 324 3.4 NNW | 343 268 32 0.5 6.8 54.5 7.7 15.65
2/6/23 - 0800 51.1 50.0 45 29.9 0.00 56.0 46.8 1,024.9 2.5 W | 280 5.9 W | 275 268 50 1.4 6.7 54.5 7.7 15.65
2/6/23 - 0750 50.0 48.2 46 29.4 0.00 55.9 46.8 1,024.9 2.4 SW | 228 5.4 SW | 218 268 -22 1.2 6.5 54.0 7.7 15.65
2/6/23 - 0740 48.2 46.6 49 29.4 0.00 56.1 46.8 1,024.9 2.8 SW | 216 5.3 SSW | 211 269 -53 0.7 6.3 53.8 7.7 15.65
2/6/23 - 0730 46.5 43.3 56 29.9 0.00 56.2 46.8 1,025.0 2.7 SSW | 204 6.2 SSW | 210 270 -50 1.0 6.2 53.8 7.7 15.65
2/6/23 - 0720 44.2 42.9 57 29.2 0.00 56.3 46.8 1,025.0 1.4 S | 176 2.8 SSE | 147 270 -51 0.0 6.0 53.9 7.7 15.65
2/6/23 - 0710 44.9 44.1 54 28.8 0.00 56.3 46.8 1,025.0 0.5 SSE | 157 2.2 SW | 215 269 -57 0.0 6.0 54.0 7.7 15.65
2/6/23 - 0700 44.9 42.8 55 28.8 0.00 56.1 46.9 1,024.8 0.9 S | 182 2.4 NW | 317 269 -61 0.1 6.0 53.8 7.7 15.65
2/6/23 - 0650 44.7 42.7 55 28.6 0.00 55.9 46.9 1,024.7 1.5 SSW | 192 4.1 SW | 236 270 -63 0.0 6.0 53.9 7.7 15.65
2/6/23 - 0640 46.9 44.7 50 28.5 0.00 55.9 46.9 1,024.4 1.3 S | 174 3.1 SSW | 198 269 -67 0.1 6.0 54.1 7.7 15.65
2/6/23 - 0630 47.3 46.4 49 28.6 0.00 56.1 46.8 1,024.3 0.9 ESE | 119 2.3 E | 96 268 -71 0.1 6.0 54.5 7.7 15.65
2/6/23 - 0620 47.2 46.5 49 28.7 0.00 56.1 46.9 1,024.1 1.5 SSW | 200 3.9 SSW | 198 269 -70 0.1 6.0 54.9 7.7 15.65
2/6/23 - 0610 48.0 46.9 48 28.8 0.00 56.2 46.9 1,024.0 2.6 S | 187 4.8 S | 174 269 -73 0.9 5.9 55.3 7.7 15.65
2/6/23 - 0600 47.1 46.8 49 29.0 0.00 56.3 46.9 1,024.0 1.7 S | 173 5.3 SE | 138 269 -72 0.4 5.8 55.6 7.7 15.65
2/6/23 - 0550 47.0 46.3 50 29.2 0.00 56.2 46.9 1,024.0 2.0 S | 178 5.5 SW | 215 269 -72 0.4 5.7 55.6 7.7 15.65
2/6/23 - 0540 48.0 47.0 48 29.1 0.00 56.0 46.9 1,023.9 2.3 SSW | 200 7.0 W | 259 269 -72 0.8 5.7 55.7 7.7 15.65
2/6/23 - 0530 48.1 47.4 48 29.3 0.00 56.1 47.0 1,023.7 2.0 SSW | 192 6.8 SSW | 196 269 -73 0.8 5.5 56.0 7.7 15.65
2/6/23 - 0520 49.0 47.7 47 29.1 0.00 56.2 46.9 1,023.6 3.7 SSW | 193 6.8 S | 170 268 -73 1.9 5.4 56.3 7.7 15.65
2/6/23 - 0510 49.1 48.3 46 29.1 0.00 56.5 47.0 1,023.6 2.0 SE | 140 5.4 ESE | 105 268 -74 0.4 5.1 56.8 7.7 15.65
2/6/23 - 0500 49.1 48.8 46 29.1 0.00 56.3 47.0 1,023.5 2.3 NE | 53 5.2 ENE | 66 268 -75 1.2 5.0 56.8 7.7 15.65
2/6/23 - 0450 49.4 48.8 46 29.2 0.00 56.5 47.0 1,023.3 1.9 NE | 37 8.9 SW | 228 268 -75 1.2 4.8 57.0 7.7 15.65
2/6/23 - 0440 49.8 49.3 45 29.0 0.00 56.3 47.0 1,023.0 1.9 WNW | 303 9.8 NNE | 22 268 -76 1.8 4.6 57.0 7.7 15.65
2/6/23 - 0430 50.3 49.6 43 28.4 0.00 56.5 47.0 1,023.0 2.6 NNW | 336 7.8 WNW | 299 268 -76 2.0 4.3 57.2 7.7 15.65
2/6/23 - 0420 50.3 49.6 42 28.0 0.00 56.4 47.0 1,023.0 3.4 W | 276 13.6 WSW | 258 268 -75 2.7 4.0 57.1 7.7 15.65
2/6/23 - 0410 49.8 49.3 43 28.0 0.00 56.5 47.0 1,022.8 2.2 W | 279 11.5 WSW | 257 268 -74 1.8 3.5 57.3 7.7 15.65
2/6/23 - 0400 50.2 49.7 43 28.1 0.00 56.6 47.0 1,022.5 1.6 NNW | 348 6.1 N | 9 268 -75 0.5 3.2 57.6 7.7 15.65
2/6/23 - 0350 49.9 49.6 44 28.9 0.00 56.7 47.0 1,022.4 2.6 NNE | 17 9.6 WSW | 248 268 -76 0.9 3.1 57.8 7.7 15.65
2/6/23 - 0340 50.0 49.6 45 29.1 0.00 56.7 47.1 1,022.2 1.5 NNW | 328 7.3 W | 274 268 -77 1.2 3.0 58.1 7.7 15.65
2/6/23 - 0330 49.9 49.2 45 29.3 0.00 56.6 47.0 1,022.1 2.3 NNW | 348 5.9 N | 7 268 -77 1.5 2.8 58.0 7.7 15.65
2/6/23 - 0320 49.6 49.3 47 30.0 0.00 56.9 47.0 1,022.1 2.0 NNW | 336 5.0 N | 354 268 -76 1.8 2.5 58.5 7.7 15.65
2/6/23 - 0310 49.7 49.1 47 30.2 0.00 56.4 47.0 1,022.2 2.5 NW | 322 11.6 W | 272 269 -75 1.5 2.2 58.3 7.7 15.65
2/6/23 - 0300 49.9 49.4 47 30.2 0.00 56.6 47.0 1,022.2 1.7 NNW | 348 5.5 NW | 317 269 -76 0.6 2.0 58.7 7.7 15.65
2/6/23 - 0250 50.2 49.4 47 30.3 0.00 56.6 47.0 1,022.2 2.4 N | 357 11.4 NNE | 19 268 -75 1.4 1.9 59.0 7.7 15.65
2/6/23 - 0240 50.0 49.6 48 30.7 0.00 56.6 47.0 1,022.4 2.5 NNW | 348 6.8 W | 281 269 -75 0.9 1.6 59.2 7.7 15.65
2/6/23 - 0230 49.9 49.3 48 31.0 0.00 56.6 47.0 1,022.4 2.9 NW | 324 9.8 WNW | 298 269 -74 2.2 1.5 59.5 7.7 15.65
2/6/23 - 0220 49.8 49.4 49 31.2 0.00 56.8 47.1 1,022.4 2.9 NNW | 337 7.0 NNE | 14 269 -74 1.9 1.1 59.7 7.7 15.65
2/6/23 - 0210 49.5 49.0 50 31.5 0.00 57.0 47.1 1,022.3 3.3 N | 10 12.7 NE | 43 269 -72 0.8 0.8 59.8 7.7 15.65
2/6/23 - 0200 49.5 48.6 50 31.5 0.00 56.9 47.1 1,022.5 1.8 NNE | 20 5.7 NE | 35 269 -72 0.1 0.7 60.0 7.7 15.65
2/6/23 - 0150 50.0 49.4 49 31.1 0.00 57.1 47.1 1,022.4 2.2 N | 2 5.4 N | 3 269 -73 0.5 0.7 60.5 7.7 15.65
2/6/23 - 0140 50.0 49.4 48 30.7 0.00 57.0 47.1 1,022.3 3.3 N | 9 7.6 NNE | 24 269 -73 0.6 0.6 60.4 7.7 15.65
2/6/23 - 0130 49.6 48.9 49 30.8 0.00 56.9 47.1 1,022.2 2.4 N | 10 7.8 N | 3 269 -73 0.2 0.5 60.4 7.7 15.65
2/6/23 - 0120 49.8 49.3 48 30.6 0.00 57.0 47.1 1,022.1 1.5 N | 3 5.1 N | 350 269 -74 0.0 0.4 60.8 7.7 15.65
2/6/23 - 0110 49.9 49.3 47 30.1 0.00 57.0 47.1 1,022.1 2.5 N | 8 7.2 N | 11 269 -74 0.0 0.4 61.1 7.7 15.65
2/6/23 - 0100 49.8 49.3 47 30.0 0.00 57.0 47.1 1,022.2 1.6 N | 349 4.4 NW | 305 269 -74 0.3 0.4 61.2 7.7 15.65
2/6/23 - 0050 49.8 49.4 47 30.4 0.00 56.8 47.1 1,022.1 0.6 NNW | 345 3.2 NE | 42 269 -74 0.0 0.4 61.3 7.7 15.65
2/6/23 - 0040 50.1 49.4 47 30.4 0.00 57.0 47.1 1,022.2 1.0 N | 353 2.9 NW | 317 269 -74 0.3 0.4 61.7 7.7 15.65
2/6/23 - 0030 50.2 49.8 47 30.4 0.00 56.9 47.2 1,022.2 1.4 N | 1 5.3 N | 10 268 -76 0.3 0.3 62.0 7.7 15.65
2/6/23 - 0020 50.2 49.8 47 30.8 0.00 57.2 47.2 1,022.3 1.2 NNW | 339 3.9 N | 353 269 -75 0.5 0.3 62.2 7.7 15.65
2/6/23 - 0010 50.4 49.9 48 31.2 0.00 57.3 47.2 1,022.3 2.3 N | 349 10.8 NNE | 21 269 -75 1.1 0.2 62.4 7.7 15.65
2/6/23 - 0000 50.3 49.9 49 31.7 0.00 57.3 47.2 1,022.3 1.5 NNW | 342 4.8 NNE | 18 269 -76 0.7 35.0 62.9 7.7 15.65
2/5/23 - 2350 50.4 50.0 49 31.9 0.00 57.0 47.2 1,022.2 2.3 NNW | 345 8.7 NNE | 25 269 -75 1.5 34.9 63.2 7.7 15.65
2/5/23 - 2340 50.6 50.2 48 31.6 0.00 57.2 47.2 1,022.2 3.1 N | 353 8.2 NE | 51 269 -75 1.2 34.6 63.9 7.7 15.65
2/5/23 - 2330 50.7 50.3 48 31.6 0.00 57.5 47.3 1,022.1 2.4 N | 353 7.2 SSW | 198 269 -74 1.0 34.4 64.7 7.7 15.65
2/5/23 - 2320 50.8 50.4 48 31.6 0.00 57.5 47.2 1,022.0 3.5 N | 8 8.5 N | 1 269 -73 1.5 34.3 65.3 7.7 15.65
2/5/23 - 2310 51.0 50.5 48 31.7 0.00 57.5 47.3 1,022.3 2.4 NNW | 339 7.9 NNW | 348 269 -67 1.2 34.0 65.8 7.7 15.65
2/5/23 - 2300 51.2 50.7 48 32.0 0.00 57.5 47.3 1,022.3 2.1 NNW | 336 4.6 WSW | 239 269 -54 1.9 33.8 66.3 7.7 15.65
2/5/23 - 2250 51.2 50.8 48 32.2 0.00 57.4 47.3 1,022.3 2.5 N | 349 10.6 N | 6 269 -50 1.7 33.5 66.8 7.7 15.65
2/5/23 - 2240 51.0 50.7 49 32.2 0.00 57.2 47.3 1,022.1 2.5 NNW | 348 7.8 NW | 318 269 -58 1.5 33.2 67.2 7.7 15.65
2/5/23 - 2230 51.3 50.7 49 32.3 0.00 57.0 47.3 1,021.9 2.4 NW | 324 9.8 NW | 309 269 -69 1.9 33.0 67.5 7.8 15.65
2/5/23 - 2220 51.3 50.9 49 32.6 0.00 57.0 47.3 1,022.0 2.1 N | 349 9.5 NNW | 337 269 -72 1.5 32.7 68.3 7.8 15.65
2/5/23 - 2210 51.1 50.7 51 33.2 0.00 57.2 47.3 1,022.0 2.2 WNW | 299 6.8 NNW | 336 269 -71 1.4 32.4 69.2 7.8 15.65
2/5/23 - 2200 51.1 50.7 51 33.5 0.00 57.3 47.3 1,021.9 2.0 WNW | 292 7.6 W | 276 270 -71 1.7 32.2 69.9 7.8 15.65
2/5/23 - 2150 50.9 50.4 54 34.6 0.00 57.3 47.3 1,022.0 1.5 NW | 313 5.5 NNW | 330 270 -70 0.6 31.9 70.4 7.8 15.65
2/5/23 - 2140 50.6 50.2 56 35.3 0.00 57.3 47.3 1,021.9 0.8 NNW | 339 3.7 NW | 322 270 -70 0.4 31.8 70.9 7.8 15.65
2/5/23 - 2130 50.2 48.5 64 37.5 0.00 57.4 47.3 1,021.7 1.3 N | 2 3.5 NE | 49 270 -70 0.3 31.7 71.6 7.8 15.65
2/5/23 - 2120 48.9 47.7 75 40.8 0.00 57.5 47.2 1,021.7 1.3 WNW | 283 3.6 W | 262 271 -68 0.8 31.7 72.1 7.8 15.65
2/5/23 - 2110 48.4 47.8 74 40.3 0.00 57.2 47.3 1,021.6 0.8 SSW | 213 3.2 SSW | 205 273 -66 0.0 31.6 72.5 7.8 15.65
2/5/23 - 2100 48.6 48.3 74 40.5 0.00 57.1 47.3 1,021.5 2.4 WSW | 240 3.6 SW | 235 272 -65 0.0 31.6 73.3 7.8 15.65
2/5/23 - 2050 49.0 47.8 75 40.7 0.00 57.0 47.3 1,021.3 1.4 S | 184 2.6 S | 190 272 -67 0.0 31.6 74.0 7.8 15.65
2/5/23 - 2040 49.6 48.0 72 40.4 0.00 57.1 47.3 1,021.2 1.2 S | 181 2.6 S | 174 272 -66 0.0 31.6 75.0 7.8 15.65
2/5/23 - 2030 50.1 49.6 71 40.8 0.00 57.1 47.3 1,021.3 1.7 SSW | 197 2.8 SW | 232 271 -68 0.0 31.6 76.1 7.8 15.65
2/5/23 - 2020 50.5 50.0 70 40.8 0.00 57.0 47.3 1,021.2 1.9 SW | 229 3.3 SW | 236 270 -69 0.1 31.6 77.2 7.8 15.65
2/5/23 - 2010 50.9 50.5 69 41.0 0.00 57.0 47.3 1,021.2 2.4 SW | 232 3.8 WSW | 246 270 -70 0.5 31.5 78.4 7.8 15.65
2/5/23 - 2000 51.0 50.6 69 40.9 0.00 57.0 47.3 1,021.0 2.7 SW | 220 5.2 WSW | 243 270 -70 1.1 31.4 79.4 7.8 15.65
2/5/23 - 1950 51.7 50.9 68 41.1 0.00 57.0 47.3 1,021.0 3.1 WSW | 247 4.9 WSW | 244 270 -70 0.9 31.3 80.5 7.8 15.65
2/5/23 - 1940 51.8 51.5 67 41.2 0.00 57.0 47.3 1,021.0 4.3 SW | 235 7.1 SW | 234 270 -71 2.4 31.1 82.6 7.8 15.65
2/5/23 - 1930 51.9 51.5 67 41.2 0.00 57.0 47.3 1,020.9 3.8 SW | 219 7.0 SW | 234 270 -73 1.8 30.7 84.8 7.8 15.65
2/5/23 - 1920 51.9 51.6 67 41.1 0.00 57.4 47.3 1,020.9 4.3 SW | 219 7.6 SW | 233 270 -73 2.6 30.4 86.9 7.8 15.65
2/5/23 - 1910 52.1 51.6 66 40.8 0.00 57.4 47.3 1,020.9 4.2 SW | 233 7.3 WSW | 247 270 -72 2.5 30.0 88.2 7.8 15.65
2/5/23 - 1900 52.3 51.9 65 40.6 0.00 57.4 47.3 1,020.9 4.7 SW | 214 7.1 SSW | 209 270 -73 2.7 29.6 89.1 7.8 15.65
2/5/23 - 1850 52.8 52.2 63 40.4 0.00 57.3 47.3 1,020.9 3.3 SW | 216 5.9 W | 270 270 -73 1.8 29.1 89.7 7.8 15.65
2/5/23 - 1840 53.0 52.6 62 40.1 0.00 57.3 47.3 1,020.8 3.9 SW | 219 7.2 WSW | 258 269 -74 2.1 28.8 90.2 7.8 15.65
2/5/23 - 1830 53.2 52.7 61 40.0 0.00 57.1 47.3 1,020.8 4.0 SW | 218 7.3 WSW | 240 269 -74 2.1 28.5 90.5 7.8 15.65
2/5/23 - 1820 53.7 53.2 60 40.0 0.00 57.3 47.3 1,020.8 4.8 SW | 224 6.9 SW | 223 269 -74 2.9 28.1 91.1 7.8 15.65
2/5/23 - 1810 53.8 53.3 60 40.0 0.00 57.3 47.3 1,020.8 3.3 SW | 227 5.9 SSW | 210 269 -75 1.6 27.6 91.2 7.8 15.65
2/5/23 - 1800 54.3 53.6 59 40.0 0.00 57.2 47.3 1,020.8 4.0 SW | 216 6.5 SW | 219 269 -76 2.0 27.4 91.4 7.8 15.65
2/5/23 - 1750 54.8 54.0 58 39.8 0.00 57.2 47.3 1,020.7 4.1 SSW | 206 6.3 SSW | 206 269 -76 2.1 27.0 91.6 7.8 15.65
2/5/23 - 1740 55.2 54.5 57 39.8 0.00 57.1 47.3 1,020.5 3.8 SW | 221 7.0 SW | 225 269 -76 2.1 26.7 91.6 7.8 15.65
2/5/23 - 1730 55.6 55.0 56 39.9 0.00 57.0 47.3 1,020.5 4.1 SW | 230 8.1 SW | 225 268 -73 2.4 26.4 91.8 7.8 15.65
2/5/23 - 1720 56.3 55.5 55 39.8 0.00 56.8 47.3 1,020.6 3.7 WSW | 238 7.3 WNW | 288 268 -69 2.0 26.0 91.9 7.8 15.65
2/5/23 - 1710 56.9 56.0 52 39.2 0.00 56.6 47.3 1,020.6 6.1 WSW | 242 9.1 WSW | 253 268 -64 3.8 25.6 92.1 7.8 15.65
2/5/23 - 1700 57.1 56.6 51 38.7 0.00